TimeMST,TemperatureF,Dew PointF,Humidity,Sea Level PressureIn,VisibilityMPH,Wind Direction,Wind SpeedMPH,Gust SpeedMPH,PrecipitationIn,Events,Conditions,WindDirDegrees,DateUTC
12:53 AM,19.0,12.9,77,30.01,10.0,NNE,3.5,-,N/A,,Clear,30,2013-02-08 07:53:00
1:53 AM,19.0,14.0,81,29.98,10.0,ENE,4.6,-,N/A,,Partly Cloudy,70,2013-02-08 08:53:00
2:53 AM,21.0,14.0,74,29.96,10.0,NNE,4.6,-,N/A,,Overcast,20,2013-02-08 09:53:00
3:53 AM,21.9,14.0,72,29.95,10.0,ENE,5.8,-,N/A,,Overcast,60,2013-02-08 10:53:00
4:53 AM,23.0,14.0,68,29.94,10.0,NNE,4.6,-,N/A,,Overcast,30,2013-02-08 11:53:00
5:53 AM,21.9,15.1,75,29.95,10.0,East,3.5,-,N/A,,Overcast,80,2013-02-08 12:53:00
6:53 AM,25.0,15.1,66,29.93,10.0,NE,6.9,-,N/A,,Overcast,40,2013-02-08 13:53:00
7:53 AM,27.0,16.0,63,29.92,10.0,ENE,8.1,-,N/A,,Overcast,70,2013-02-08 14:53:00
8:53 AM,27.0,17.1,66,29.91,10.0,NE,10.4,-,N/A,,Clear,40,2013-02-08 15:53:00
9:53 AM,30.0,19.9,66,29.89,10.0,NE,8.1,-,N/A,,Clear,40,2013-02-08 16:53:00
10:53 AM,33.1,21.9,64,29.88,10.0,ENE,9.2,-,N/A,,Clear,70,2013-02-08 17:53:00
11:53 AM,36.0,23.0,59,29.85,10.0,NE,9.2,-,N/A,,Mostly Cloudy,50,2013-02-08 18:53:00
12:53 PM,36.0,24.1,62,29.82,10.0,East,4.6,-,N/A,,Overcast,80,2013-02-08 19:53:00
1:53 PM,37.9,24.1,57,29.79,10.0,Calm,Calm,-,N/A,,Overcast,0,2013-02-08 20:53:00
2:53 PM,37.0,24.1,59,29.78,10.0,Calm,Calm,-,N/A,,Mostly Cloudy,0,2013-02-08 21:53:00
3:53 PM,36.0,24.1,62,29.80,10.0,South,4.6,-,N/A,,Overcast,190,2013-02-08 22:53:00
4:53 PM,33.1,26.1,75,29.79,10.0,SSW,5.8,-,N/A,,Overcast,210,2013-02-08 23:53:00
5:53 PM,33.1,26.1,75,29.79,10.0,Calm,Calm,-,N/A,,Overcast,0,2013-02-09 00:53:00
6:53 PM,33.1,21.9,64,29.79,10.0,NNE,11.5,-,N/A,,Overcast,30,2013-02-09 01:53:00
7:53 PM,32.0,24.1,73,29.78,10.0,NNE,6.9,-,N/A,,Overcast,30,2013-02-09 02:53:00
8:53 PM,30.9,21.9,69,29.78,10.0,North,6.9,-,N/A,,Mostly Cloudy,10,2013-02-09 03:53:00
9:53 PM,28.9,19.9,69,29.77,10.0,NNE,6.9,-,N/A,,Mostly Cloudy,20,2013-02-09 04:53:00
10:53 PM,27.0,19.0,72,29.75,10.0,East,5.8,-,N/A,,Clear,80,2013-02-09 05:53:00
11:53 PM,27.0,17.1,66,29.74,10.0,NE,4.6,-,N/A,,Clear,40,2013-02-09 06:53:00